Time;durP1;ratioP1;P1;durP2;ratioP2;P2;SDS_P1;SDS_P2;PMS_P1;PMS_P2;Temp;Humidity;BMP_temperature;BMP_pressure;BME280_temperature;BME280_humidity;BME280_pressure;Samples;Min_cycle;Max_cycle;Signal;HPM_P1;HPM_P2
2023/06/10 05:49:21;;;;;;;10.00;9.00;;;19.70;81.90;;;;;;4977443;28;20212;-84
2023/06/10 05:51:48;;;;;;;9.98;8.93;;;20.40;76.10;;;;;;4974306;28;20232;-88
2023/06/10 05:54:15;;;;;;;12.60;9.32;;;20.40;71.60;;;;;;4969031;28;20230;-83
2023/06/10 05:56:42;;;;;;;11.60;9.25;;;20.20;72.00;;;;;;4962004;28;20263;-87
2023/06/10 05:59:09;;;;;;;11.10;9.45;;;19.90;75.90;;;;;;4979412;28;20195;-85
2023/06/10 06:01:41;;;;;;;10.52;9.52;;;19.60;78.90;;;;;;4967055;28;20260;-84
2023/06/10 06:04:08;;;;;;;10.35;9.30;;;19.10;81.30;;;;;;4972612;28;20201;-88
2023/06/10 06:06:36;;;;;;;10.30;9.40;;;19.00;84.20;;;;;;4968469;28;20201;-87
2023/06/10 06:09:03;;;;;;;10.18;8.73;;;18.90;84.80;;;;;;4972939;28;20192;-85
2023/06/10 06:11:30;;;;;;;10.27;9.20;;;18.90;84.20;;;;;;4974487;28;20212;-88
2023/06/10 06:13:57;;;;;;;10.15;9.18;;;18.80;86.20;;;;;;4979705;28;20212;-87
2023/06/10 06:16:24;;;;;;;11.10;10.00;;;18.60;87.20;;;;;;4975193;28;20539;-82
2023/06/10 06:18:51;;;;;;;10.23;9.20;;;18.70;87.50;;;;;;4968287;28;20213;-88
2023/06/10 06:21:18;;;;;;;10.40;9.30;;;18.70;86.80;;;;;;4975561;28;20211;-87
2023/06/10 06:23:46;;;;;;;10.35;8.70;;;18.80;85.50;;;;;;4976107;28;20201;-83
2023/06/10 06:26:13;;;;;;;9.60;8.60;;;18.80;85.40;;;;;;4972261;28;20208;-86
2023/06/10 06:28:40;;;;;;;9.30;8.40;;;18.80;85.40;;;;;;4976683;28;20572;-87
2023/06/10 06:31:07;;;;;;;9.80;8.80;;;18.90;85.40;;;;;;4970023;28;20197;-87
2023/06/10 06:33:34;;;;;;;9.00;8.20;;;19.00;83.70;;;;;;4968329;28;20220;-86
2023/06/10 06:36:01;;;;;;;9.45;8.55;;;19.00;84.40;;;;;;4969313;28;20227;-87
2023/06/10 06:38:28;;;;;;;9.80;8.80;;;19.10;83.70;;;;;;4971932;28;20228;-91
2023/06/10 06:40:56;;;;;;;9.38;8.48;;;19.00;86.70;;;;;;4973259;28;20207;-88
2023/06/10 06:43:24;;;;;;;10.13;9.05;;;18.90;84.80;;;;;;4969300;28;20201;-89
2023/06/10 06:45:50;;;;;;;9.57;8.68;;;18.90;84.00;;;;;;4969587;28;20669;-88
2023/06/10 06:48:17;;;;;;;10.55;8.20;;;18.70;85.50;;;;;;4968952;28;20201;-83
2023/06/10 06:50:44;;;;;;;10.35;9.25;;;18.60;86.70;;;;;;4972335;28;20200;-87
2023/06/10 06:53:11;;;;;;;8.75;7.95;;;18.70;85.10;;;;;;4954666;28;20224;-87
2023/06/10 06:55:38;;;;;;;10.32;9.32;;;18.60;85.60;;;;;;4969193;28;20626;-86
2023/06/10 06:58:07;;;;;;;9.82;8.90;;;18.60;85.90;;;;;;4969352;28;20196;-87
2023/06/10 07:00:34;;;;;;;9.90;9.00;;;18.60;86.90;;;;;;4957778;28;20255;-89
2023/06/10 07:03:00;;;;;;;9.50;8.55;;;18.70;88.50;;;;;;4981448;28;20206;-86
2023/06/10 07:05:27;;;;;;;10.98;9.77;;;18.70;88.60;;;;;;4979342;28;20221;-86
2023/06/10 07:07:55;;;;;;;10.55;9.07;;;18.90;84.80;;;;;;4951089;28;20209;-88
2023/06/10 07:10:23;;;;;;;10.48;9.48;;;19.30;83.80;;;;;;4946000;28;20209;-89
2023/06/10 07:12:50;;;;;;;10.60;9.00;;;20.70;78.20;;;;;;4966618;28;20204;-87
2023/06/10 07:15:18;;;;;;;8.55;7.53;;;22.20;57.90;;;;;;4967238;28;20213;-87
2023/06/10 07:17:45;;;;;;;11.98;8.07;;;22.70;52.20;;;;;;4969410;28;20227;-87
2023/06/10 07:20:14;;;;;;;8.80;8.02;;;23.00;47.40;;;;;;4970412;28;20200;-86
2023/06/10 07:22:42;;;;;;;9.70;8.13;;;23.10;42.30;;;;;;4952735;28;20212;-91
2023/06/10 07:25:09;;;;;;;9.30;7.60;;;22.60;45.40;;;;;;4950120;28;20255;-88
2023/06/10 07:27:37;;;;;;;8.70;7.90;;;22.30;45.30;;;;;;4966828;28;20204;-88
2023/06/10 07:30:04;;;;;;;9.15;7.90;;;21.80;47.50;;;;;;4966445;28;20200;-83
2023/06/10 07:32:32;;;;;;;18.00;15.40;;;21.70;52.40;;;;;;4970975;28;20225;-88
2023/06/10 07:34:59;;;;;;;10.50;7.90;;;21.50;55.30;;;;;;4955635;28;20276;-87
2023/06/10 07:37:26;;;;;;;9.43;7.82;;;21.40;57.20;;;;;;4958875;28;20267;-85
2023/06/10 07:39:54;;;;;;;10.30;8.90;;;21.10;58.30;;;;;;4971783;28;20588;-87
2023/06/10 07:42:21;;;;;;;8.68;7.88;;;21.20;54.70;;;;;;4969554;28;20243;-87
2023/06/10 07:44:48;;;;;;;8.55;7.65;;;21.00;56.80;;;;;;4971518;28;20209;-85
2023/06/10 07:47:14;;;;;;;8.60;7.68;;;20.90;56.70;;;;;;4968769;28;20209;-86
2023/06/10 07:49:43;;;;;;;10.98;7.97;;;20.90;62.20;;;;;;4941482;28;20212;-85
2023/06/10 07:52:11;;;;;;;7.70;7.00;;;20.90;57.90;;;;;;4970530;28;20192;-85
2023/06/10 07:54:38;;;;;;;8.00;7.25;;;21.00;56.80;;;;;;4948539;28;20232;-88
2023/06/10 07:57:07;;;;;;;7.43;6.68;;;21.30;57.10;;;;;;4970015;28;20783;-87
2023/06/10 07:59:33;;;;;;;7.93;7.13;;;21.50;56.40;;;;;;4956093;28;21177;-86
2023/06/10 08:02:00;;;;;;;8.82;6.88;;;21.60;55.20;;;;;;4969510;28;20237;-87
2023/06/10 08:04:27;;;;;;;7.18;6.32;;;21.80;50.80;;;;;;4967827;28;20204;-86
2023/06/10 08:06:56;;;;;;;7.53;6.22;;;21.70;46.60;;;;;;4955331;28;20212;-84
2023/06/10 08:09:23;;;;;;;7.07;6.32;;;22.10;48.20;;;;;;4963657;28;20200;-86
2023/06/10 08:11:50;;;;;;;6.68;6.07;;;22.40;45.10;;;;;;4969710;28;20193;-88
2023/06/10 08:14:17;;;;;;;6.45;5.90;;;22.50;46.70;;;;;;4949750;28;20197;-85
2023/06/10 08:16:44;;;;;;;8.60;7.70;;;22.60;44.50;;;;;;4968331;28;20545;-86
2023/06/10 08:19:11;;;;;;;7.82;7.13;;;22.70;42.90;;;;;;4968915;28;20850;-86
2023/06/10 08:21:39;;;;;;;6.72;6.22;;;23.30;40.70;;;;;;4950236;28;20207;-81
2023/06/10 08:24:09;;;;;;;11.35;6.45;;;25.20;33.20;;;;;;4964925;28;20318;-88
2023/06/10 08:26:37;;;;;;;7.13;6.38;;;26.50;26.40;;;;;;4949363;28;20208;-87
2023/06/10 08:29:05;;;;;;;7.38;6.40;;;27.80;21.70;;;;;;4969517;28;20231;-88
2023/06/10 08:31:32;;;;;;;6.88;6.20;;;29.10;18.30;;;;;;4971414;28;20210;-89
2023/06/10 08:34:00;;;;;;;7.35;6.65;;;30.20;14.90;;;;;;4966248;28;20204;-89
2023/06/10 08:36:27;;;;;;;6.65;6.05;;;29.00;16.10;;;;;;4982578;28;20233;-87
2023/06/10 08:38:54;;;;;;;7.20;6.63;;;28.00;19.30;;;;;;4962552;28;20577;-88
2023/06/10 08:41:24;;;;;;;6.40;5.90;;;27.70;19.70;;;;;;4979617;28;20192;-85
2023/06/10 08:44:00;;;;;;;7.50;6.90;;;27.90;18.90;;;;;;4979149;28;20203;-86
2023/06/10 08:49:49;;;;;;;7.38;6.78;;;28.50;16.20;;;;;;4981217;28;20215;-84
2023/06/10 08:52:18;;;;;;;7.38;6.78;;;28.30;15.80;;;;;;4978455;28;20664;-81
2023/06/10 08:54:50;;;;;;;7.20;6.57;;;27.40;18.70;;;;;;4976744;28;20199;-84
2023/06/10 08:57:20;;;;;;;7.93;7.30;;;26.20;20.70;;;;;;4969552;28;20215;-83
2023/06/10 08:59:47;;;;;;;7.80;6.57;;;25.30;24.60;;;;;;4969453;28;20265;-85
2023/06/10 09:02:15;;;;;;;8.27;6.68;;;25.50;26.20;;;;;;4967238;28;20196;-87
2023/06/10 09:04:44;;;;;;;6.88;6.28;;;25.40;25.80;;;;;;4973484;28;20251;-85
2023/06/10 09:07:11;;;;;;;7.35;6.70;;;26.80;22.00;;;;;;4972263;28;20200;-85
2023/06/10 09:09:38;;;;;;;7.45;6.82;;;27.60;21.70;;;;;;4976154;28;20204;-87
2023/06/10 09:12:06;;;;;;;6.95;6.32;;;28.30;19.00;;;;;;4974171;28;20205;-84
2023/06/10 09:14:34;;;;;;;6.20;5.70;;;28.50;18.80;;;;;;4958433;28;20654;-84
2023/06/10 09:17:01;;;;;;;6.45;5.95;;;29.30;16.30;;;;;;4967712;28;20228;-84
2023/06/10 09:19:28;;;;;;;10.10;9.23;;;29.50;16.40;;;;;;4973717;28;20246;-86
2023/06/10 09:21:55;;;;;;;6.63;6.13;;;29.20;16.30;;;;;;4976724;28;20207;-80
2023/06/10 09:24:23;;;;;;;7.30;6.70;;;28.80;16.10;;;;;;4973104;28;20221;-84
2023/06/10 09:26:50;;;;;;;5.40;4.90;;;28.80;16.10;;;;;;4973168;28;20206;-84
2023/06/10 09:29:18;;;;;;;5.68;5.13;;;29.00;16.20;;;;;;4964700;28;20645;-85
2023/06/10 09:31:47;;;;;;;6.13;5.72;;;29.40;16.30;;;;;;4977555;28;20197;-90
2023/06/10 09:34:16;;;;;;;5.70;5.22;;;30.00;13.80;;;;;;4972860;28;20227;-87
2023/06/10 09:36:44;;;;;;;6.00;5.60;;;29.80;15.40;;;;;;4969807;28;20331;-86
2023/06/10 09:39:16;;;;;;;6.63;6.03;;;30.10;13.60;;;;;;4959738;28;20208;-91
2023/06/10 09:41:44;;;;;;;6.35;5.85;;;29.70;14.40;;;;;;4972016;28;20235;-88
2023/06/10 09:44:14;;;;;;;5.97;5.45;;;28.80;16.00;;;;;;4979211;28;20195;-85
2023/06/10 09:46:41;;;;;;;5.60;5.20;;;28.70;16.00;;;;;;4974769;28;20603;-83
2023/06/10 09:49:09;;;;;;;5.75;5.25;;;28.90;16.10;;;;;;4950983;28;20522;-88
2023/06/10 09:51:36;;;;;;;5.85;5.43;;;29.40;16.30;;;;;;4960221;28;20200;-88
2023/06/10 09:54:04;;;;;;;6.22;5.70;;;30.30;13.60;;;;;;4978632;28;20202;-88
2023/06/10 09:56:36;;;;;;;5.90;5.50;;;30.30;14.60;;;;;;4975501;28;20242;-86
2023/06/10 09:59:04;;;;;;;6.07;5.68;;;29.70;16.50;;;;;;4974055;28;20204;-88
2023/06/10 10:01:33;;;;;;;6.03;5.53;;;30.00;14.70;;;;;;4956073;28;20300;-89
2023/06/10 10:04:00;;;;;;;6.68;5.85;;;30.10;13.10;;;;;;4974074;28;20212;-88
2023/06/10 10:06:29;;;;;;;5.20;4.80;;;31.10;11.60;;;;;;4980586;28;20211;-85
2023/06/10 10:08:56;;;;;;;5.40;4.80;;;30.20;12.80;;;;;;4969432;28;20471;-88
2023/06/10 10:11:25;;;;;;;5.72;5.32;;;30.40;11.60;;;;;;4965211;28;20646;-85
2023/06/10 10:13:53;;;;;;;5.72;5.32;;;30.60;12.00;;;;;;4973041;28;20546;-85
2023/06/10 10:16:22;;;;;;;5.45;5.05;;;31.30;10.70;;;;;;4977417;28;20224;-86
2023/06/10 10:18:54;;;;;;;5.72;5.22;;;31.40;8.90;;;;;;4978419;28;20236;-89
2023/06/10 10:21:24;;;;;;;5.70;5.30;;;30.20;14.30;;;;;;4973106;28;20207;-88
2023/06/10 10:23:56;;;;;;;5.60;5.20;;;30.10;12.80;;;;;;4971434;28;20207;-87
2023/06/10 10:26:26;;;;;;;5.40;5.00;;;29.90;13.50;;;;;;4956533;28;20959;-88
2023/06/10 10:29:06;;;;;;;5.40;5.00;;;30.60;11.60;;;;;;4957266;28;20215;-88
2023/06/10 10:31:35;;;;;;;5.90;4.80;;;30.80;11.60;;;;;;4973793;28;20208;-86
2023/06/10 10:34:08;;;;;;;4.70;4.40;;;32.00;9.60;;;;;;4976147;28;20195;-88
2023/06/10 10:36:36;;;;;;;4.72;4.32;;;32.20;10.50;;;;;;4970354;28;20212;-87
2023/06/10 10:39:05;;;;;;;5.13;4.60;;;32.70;8.30;;;;;;4966794;28;20203;-87
2023/06/10 10:41:33;;;;;;;4.80;4.50;;;32.50;9.10;;;;;;4972682;28;20227;-88
2023/06/10 10:44:01;;;;;;;6.03;5.43;;;31.70;9.90;;;;;;4979498;28;20255;-88
2023/06/10 10:46:28;;;;;;;5.20;4.70;;;31.20;12.50;;;;;;4972152;28;20204;-88
2023/06/10 10:48:57;;;;;;;5.15;4.68;;;30.90;10.60;;;;;;4985941;28;20203;-89
2023/06/10 10:51:25;;;;;;;4.47;4.18;;;30.20;13.50;;;;;;4975406;28;20200;-90
2023/06/10 10:54:13;;;;;;;4.82;4.53;;;29.90;14.90;;;;;;4971560;28;20220;-88
2023/06/10 10:56:40;;;;;;;4.57;4.18;;;29.70;12.00;;;;;;4975857;28;20216;-85
2023/06/10 10:59:09;;;;;;;4.53;4.13;;;29.20;12.50;;;;;;4977406;28;20641;-87
2023/06/10 11:01:45;;;;;;;4.88;3.63;;;29.70;11.90;;;;;;4973688;28;20258;-84
2023/06/10 11:04:13;;;;;;;4.47;4.18;;;29.40;14.80;;;;;;4944766;28;20224;-86
2023/06/10 11:06:40;;;;;;;4.22;3.90;;;29.00;14.50;;;;;;4974990;28;20200;-87
2023/06/10 11:09:29;;;;;;;5.15;4.50;;;28.60;16.00;;;;;;4957558;28;20244;-87
2023/06/10 11:12:00;;;;;;;4.75;4.35;;;27.60;15.40;;;;;;4966634;28;20251;-89
2023/06/10 11:14:31;;;;;;;4.40;4.00;;;26.90;16.30;;;;;;4957407;28;20294;-83
2023/06/10 11:16:59;;;;;;;4.47;4.07;;;26.10;18.20;;;;;;4956219;28;20319;-84
2023/06/10 11:19:37;;;;;;;4.45;4.05;;;25.90;19.50;;;;;;4962710;28;20212;-85
2023/06/10 11:22:06;;;;;;;4.07;3.70;;;26.30;17.60;;;;;;4964205;28;20291;-83
2023/06/10 11:24:35;;;;;;;4.07;3.78;;;26.40;20.00;;;;;;4964763;28;20201;-81
2023/06/10 11:27:22;;;;;;;5.05;4.55;;;26.70;17.10;;;;;;4965001;28;20647;-88
2023/06/10 11:30:00;;;;;;;4.18;3.53;;;26.90;18.20;;;;;;4960021;28;20203;-84
2023/06/10 11:32:31;;;;;;;3.78;3.47;;;27.20;18.60;;;;;;4961677;28;20211;-87
2023/06/10 11:34:58;;;;;;;4.40;4.00;;;27.50;15.40;;;;;;4968347;28;20200;-84
2023/06/10 11:37:26;;;;;;;4.20;3.80;;;27.50;15.40;;;;;;4976094;28;20216;-87
2023/06/10 11:39:55;;;;;;;5.53;3.65;;;27.20;15.20;;;;;;4959153;28;20201;-86
2023/06/10 11:42:27;;;;;;;4.35;3.95;;;27.10;16.40;;;;;;4948490;28;20203;-92
2023/06/10 11:44:55;;;;;;;3.95;3.55;;;27.00;17.90;;;;;;4982606;28;20251;-92
2023/06/10 11:47:22;;;;;;;4.78;3.53;;;26.50;16.20;;;;;;4960615;28;20196;-92
2023/06/10 11:49:57;;;;;;;4.15;3.83;;;26.60;17.10;;;;;;4969966;28;20297;-88
2023/06/10 11:52:28;;;;;;;4.00;3.70;;;26.90;18.40;;;;;;4949452;28;20246;-88
2023/06/10 11:54:57;;;;;;;3.83;3.53;;;27.10;16.00;;;;;;4938519;28;20259;-86
2023/06/10 11:57:24;;;;;;;3.55;3.25;;;27.20;15.40;;;;;;4955734;28;20515;-84
2023/06/10 11:59:50;;;;;;;3.72;3.42;;;27.40;15.30;;;;;;4966091;28;20192;-88
2023/06/10 12:02:18;;;;;;;4.18;3.60;;;27.10;15.20;;;;;;4969723;28;20699;-84
2023/06/10 12:04:45;;;;;;;4.40;3.40;;;27.00;15.10;;;;;;4970105;28;20267;-86
2023/06/10 12:14:17;;;;;;;3.78;3.20;;;26.50;16.10;;;;;;4989314;28;20231;-89
2023/06/10 13:01:00;;;;;;;5.68;4.10;;;25.90;19.20;;;;;;6045474;22;20201;-88
2023/06/10 13:03:27;;;;;;;4.70;4.30;;;26.30;19.80;;;;;;5044189;23;20237;-90
2023/06/10 13:21:28;;;;;;;5.70;4.10;;;25.60;21.70;;;;;;5042483;23;20260;-87
2023/06/10 13:23:55;;;;;;;6.45;4.40;;;25.60;22.10;;;;;;5037483;28;20187;-87
2023/06/10 13:27:08;;;;;;;4.43;4.13;;;25.60;22.70;;;;;;5020935;28;20203;-87
2023/06/10 13:29:34;;;;;;;4.32;3.92;;;25.50;21.30;;;;;;5021106;28;20727;-85
2023/06/10 13:32:01;;;;;;;4.78;4.38;;;25.50;21.50;;;;;;5026006;28;20523;-88
2023/06/10 13:34:28;;;;;;;5.20;3.85;;;25.50;20.90;;;;;;5011168;28;20204;-88
2023/06/10 13:36:57;;;;;;;4.75;3.80;;;25.60;21.10;;;;;;5018186;28;20210;-85
2023/06/10 13:39:24;;;;;;;4.40;4.10;;;25.50;20.80;;;;;;5019006;28;20203;-87
2023/06/10 13:41:51;;;;;;;5.55;4.30;;;25.50;21.30;;;;;;5006783;28;20203;-89
2023/06/10 13:44:18;;;;;;;4.05;3.70;;;25.40;21.20;;;;;;4987877;28;20211;-87
2023/06/10 13:46:46;;;;;;;4.93;4.50;;;25.40;20.90;;;;;;5026247;28;20203;-92
2023/06/10 13:52:27;;;;;;;4.03;3.63;;;25.40;20.50;;;;;;5024907;28;20199;-89
2023/06/10 13:54:55;;;;;;;3.67;3.38;;;25.30;20.80;;;;;;4999122;28;20196;-89
2023/06/10 13:57:22;;;;;;;5.72;3.53;;;25.40;19.50;;;;;;5020564;28;20285;-91
2023/06/10 13:59:49;;;;;;;4.47;4.10;;;25.40;19.30;;;;;;5029482;28;20571;-89
2023/06/10 14:02:16;;;;;;;3.72;3.30;;;25.40;19.50;;;;;;5024439;28;20219;-89
2023/06/10 14:04:43;;;;;;;3.72;3.42;;;25.40;18.80;;;;;;5017940;28;20227;-89
2023/06/10 14:07:10;;;;;;;4.03;3.72;;;25.40;19.60;;;;;;5016306;28;20198;-88
2023/06/10 14:09:37;;;;;;;6.07;3.70;;;25.40;19.90;;;;;;5027308;28;20260;-90
2023/06/10 14:12:09;;;;;;;4.22;3.50;;;25.40;20.40;;;;;;5020281;28;20546;-88
2023/06/10 14:14:36;;;;;;;4.00;3.60;;;25.50;18.90;;;;;;5012800;28;20210;-90
2023/06/10 14:17:04;;;;;;;3.40;3.13;;;25.40;19.00;;;;;;4992191;28;20215;-89
2023/06/10 14:29:50;;;;;;;5.25;3.88;;;25.20;20.30;;;;;;4963808;28;20698;-84
2023/06/10 14:32:17;;;;;;;4.03;3.60;;;25.20;20.40;;;;;;4975052;28;20204;-85
2023/06/10 14:34:44;;;;;;;4.97;3.72;;;25.20;20.30;;;;;;4973496;28;20561;-85
2023/06/10 14:37:11;;;;;;;3.88;3.58;;;25.30;20.30;;;;;;4970972;28;20224;-86
2023/06/10 14:39:38;;;;;;;3.38;3.10;;;25.30;19.80;;;;;;4963413;28;20264;-89
2023/06/10 14:42:06;;;;;;;3.25;2.95;;;25.30;18.40;;;;;;4965126;28;20197;-90
2023/06/10 14:44:33;;;;;;;4.10;3.00;;;25.20;18.40;;;;;;4967793;28;20216;-86
2023/06/10 14:47:03;;;;;;;3.47;3.17;;;25.20;18.10;;;;;;4974370;28;20203;-89
2023/06/10 14:49:31;;;;;;;2.97;2.78;;;25.10;19.10;;;;;;4976219;28;20205;-88
2023/06/10 14:51:58;;;;;;;3.17;2.70;;;25.20;18.70;;;;;;4975927;28;20200;-88
2023/06/10 14:54:25;;;;;;;4.15;3.08;;;25.30;17.40;;;;;;4983471;28;20202;-88
2023/06/10 14:56:52;;;;;;;3.38;3.08;;;25.40;17.50;;;;;;4972055;28;20228;-87
2023/06/10 14:59:19;;;;;;;3.30;2.90;;;25.50;17.30;;;;;;5008024;28;20196;-83
2023/06/10 15:01:46;;;;;;;4.00;3.70;;;25.50;17.10;;;;;;4969689;28;20209;-86
2023/06/10 15:04:14;;;;;;;3.35;3.13;;;25.30;18.20;;;;;;4976835;28;20192;-88
2023/06/10 15:06:41;;;;;;;4.43;3.80;;;25.10;19.60;;;;;;4979581;28;20195;-86
2023/06/10 15:09:08;;;;;;;4.53;4.13;;;25.20;20.00;;;;;;4972839;28;20212;-90
2023/06/10 15:11:35;;;;;;;4.70;4.20;;;25.40;20.70;;;;;;4973644;28;20209;-87
2023/06/10 15:14:01;;;;;;;7.03;4.10;;;25.80;20.60;;;;;;4981076;28;20204;-88
2023/06/10 15:16:28;;;;;;;4.28;3.88;;;26.00;21.10;;;;;;4967599;28;20235;-88
2023/06/10 15:18:55;;;;;;;4.45;4.05;;;26.20;20.00;;;;;;4966888;28;20243;-88
2023/06/10 15:21:23;;;;;;;5.47;4.43;;;26.10;20.00;;;;;;5007913;28;20196;-90
2023/06/10 15:23:51;;;;;;;5.07;4.20;;;25.60;21.50;;;;;;5002091;28;20212;-90
2023/06/10 15:26:19;;;;;;;5.40;4.47;;;25.30;21.60;;;;;;5000967;28;20626;-91
2023/06/10 15:28:46;;;;;;;4.57;4.18;;;25.30;21.80;;;;;;5010308;28;20183;-87
2023/06/10 15:31:59;;;;;;;5.38;4.13;;;25.50;21.60;;;;;;5018753;28;20172;-91
2023/06/10 15:34:26;;;;;;;4.28;3.88;;;25.30;20.40;;;;;;5013375;28;20372;-88
2023/06/10 15:36:55;;;;;;;4.00;3.70;;;25.50;20.60;;;;;;5009783;28;20224;-87
2023/06/10 15:39:24;;;;;;;4.35;3.92;;;25.50;20.00;;;;;;5004613;28;20190;-92
2023/06/10 15:41:51;;;;;;;4.18;3.80;;;25.50;19.90;;;;;;4996021;28;20211;-88
2023/06/10 15:44:18;;;;;;;4.75;3.70;;;25.60;19.00;;;;;;5012182;28;20203;-88
2023/06/10 15:46:45;;;;;;;4.57;3.67;;;25.80;18.60;;;;;;5011490;28;20206;-90
2023/06/10 15:49:13;;;;;;;4.45;3.80;;;25.70;18.50;;;;;;5011218;28;20260;-89
2023/06/10 15:51:40;;;;;;;4.30;3.90;;;25.60;18.10;;;;;;4987274;28;20287;-88
2023/06/10 15:54:09;;;;;;;4.80;3.90;;;25.50;19.40;;;;;;4998454;28;20194;-90
2023/06/10 15:56:36;;;;;;;4.68;4.28;;;25.40;19.80;;;;;;4971867;28;20269;-90
2023/06/10 15:59:04;;;;;;;4.32;3.92;;;25.30;19.90;;;;;;5002012;28;20219;-91
2023/06/10 16:01:41;;;;;;;6.03;4.00;;;25.40;19.80;;;;;;5005582;28;20231;-87
2023/06/10 16:04:08;;;;;;;4.35;3.95;;;25.20;20.40;;;;;;5009642;28;20307;-87
2023/06/10 16:06:36;;;;;;;5.32;4.28;;;25.20;21.50;;;;;;5009434;28;20196;-91
2023/06/10 16:12:36;;;;;;;4.57;4.22;;;24.80;24.20;;;;;;5010452;28;20186;-90
2023/06/10 16:15:03;;;;;;;4.88;4.40;;;24.90;24.40;;;;;;4997940;28;20243;-91
2023/06/10 16:17:32;;;;;;;5.25;4.75;;;24.80;24.40;;;;;;5188829;23;20190;-89
2023/06/10 16:19:59;;;;;;;5.22;4.72;;;24.50;24.60;;;;;;5025094;28;20215;-90
2023/06/10 16:22:26;;;;;;;4.93;4.53;;;24.40;24.40;;;;;;5032559;28;20210;-90
2023/06/10 16:24:58;;;;;;;5.10;4.60;;;24.40;25.40;;;;;;5033105;28;20206;-89
2023/06/10 16:27:25;;;;;;;40.65;36.55;;;24.40;24.50;;;;;;5015040;28;20255;-90
2023/06/10 16:32:57;;;;;;;4.75;4.35;;;24.60;25.60;;;;;;5011728;28;20306;-88
2023/06/10 16:35:24;;;;;;;5.78;5.28;;;24.50;25.10;;;;;;5015037;28;20199;-84
2023/06/10 16:37:51;;;;;;;5.85;4.65;;;24.50;25.40;;;;;;5019441;28;20215;-87
2023/06/10 16:40:19;;;;;;;5.30;4.90;;;24.40;25.30;;;;;;4989132;28;20204;-85
2023/06/10 16:42:45;;;;;;;5.18;4.75;;;24.30;25.60;;;;;;5008988;28;20196;-85
2023/06/10 16:45:14;;;;;;;6.10;4.50;;;24.30;25.50;;;;;;5003430;28;20219;-84
2023/06/10 16:47:41;;;;;;;4.60;4.20;;;24.20;25.40;;;;;;4996686;28;20207;-86
2023/06/10 16:50:08;;;;;;;5.10;4.70;;;24.10;25.60;;;;;;5011701;28;20299;-85
2023/06/10 16:52:35;;;;;;;4.57;4.28;;;24.00;25.70;;;;;;5008030;28;20207;-82
2023/06/10 16:55:02;;;;;;;4.88;4.47;;;23.90;26.00;;;;;;4998112;28;20203;-84
2023/06/10 16:57:29;;;;;;;6.40;4.88;;;23.90;26.40;;;;;;5009509;28;20234;-80
2023/06/10 16:59:56;;;;;;;5.15;4.63;;;23.90;26.50;;;;;;5008141;28;20203;-82
2023/06/10 17:02:25;;;;;;;5.38;4.93;;;23.90;26.80;;;;;;5009779;28;20203;-85
2023/06/10 17:04:53;;;;;;;4.88;4.47;;;23.70;26.90;;;;;;5007446;28;20203;-86
2023/06/10 17:07:20;;;;;;;5.38;4.88;;;23.70;27.70;;;;;;5008667;28;20203;-85
2023/06/10 17:09:46;;;;;;;5.22;4.72;;;23.70;29.60;;;;;;5013772;28;20230;-88
2023/06/10 17:12:13;;;;;;;5.13;4.72;;;23.70;28.70;;;;;;5017283;28;20200;-88
2023/06/10 17:14:40;;;;;;;5.50;4.80;;;23.80;28.50;;;;;;5004286;28;20319;-87
2023/06/10 17:17:07;;;;;;;5.43;4.85;;;23.90;28.60;;;;;;5010180;28;20234;-88
2023/06/10 17:19:36;;;;;;;5.07;4.22;;;24.00;27.40;;;;;;5012907;28;20211;-86
2023/06/10 17:22:03;;;;;;;5.93;4.38;;;23.90;28.30;;;;;;5011199;28;20200;-86
2023/06/10 17:24:29;;;;;;;11.25;5.47;;;23.80;30.40;;;;;;5025395;28;20199;-90
2023/06/10 17:26:56;;;;;;;23.13;7.68;;;23.10;58.80;;;;;;5023114;28;20208;-90
2023/06/10 17:29:23;;;;;;;23.30;8.63;;;21.90;87.70;;;;;;5042630;28;20258;-87
2023/06/10 17:31:50;;;;;;;20.52;8.05;;;20.80;93.90;;;;;;5030699;28;20660;-88
2023/06/10 17:41:31;;;;;;;9.43;8.27;;;19.30;99.90;;;;;;5001026;28;20187;-90
2023/06/10 17:47:20;;;;;;;9.30;8.38;;;18.90;99.90;;;;;;5000412;28;20172;-89
2023/06/10 18:07:46;;;;;;;10.18;9.18;;;18.40;99.90;;;;;;5444660;22;20242;-90
2023/06/10 18:10:13;;;;;;;56.47;50.38;;;18.30;99.90;;;;;;5813397;23;20198;-92
2023/06/10 18:12:44;;;;;;;10.90;9.77;;;18.30;99.90;;;;;;5023008;28;20211;-90
2023/06/10 18:21:03;;;;;;;9.68;8.68;;;18.10;99.90;;;;;;5778657;23;20230;-91
2023/06/10 18:23:30;;;;;;;10.30;7.88;;;18.00;99.90;;;;;;5087052;22;20179;-92
2023/06/10 18:31:23;;;;;;;8.82;8.02;;;17.70;99.90;;;;;;4962324;28;20201;-92
2023/06/10 18:33:51;;;;;;;10.65;9.35;;;17.70;99.90;;;;;;4965030;29;20201;-91
2023/06/10 18:36:18;;;;;;;13.60;12.30;;;17.70;99.90;;;;;;4974890;28;20274;-88
2023/06/10 19:03:49;;;;;;;18.55;16.75;;;17.40;99.90;;;;;;4983663;28;20259;-89
2023/06/10 19:12:42;;;;;;;16.88;15.15;;;17.40;99.90;;;;;;4971953;28;20210;-90
2023/06/10 20:27:29;;;;;;;10.90;9.80;;;16.90;99.90;;;;;;4961172;29;20201;-88
2023/06/10 21:08:05;;;;;;;10.30;9.23;;;16.70;99.90;;;;;;4981309;28;20187;-85
2023/06/10 21:14:32;;;;;;;10.50;9.50;;;16.60;99.90;;;;;;4991003;28;20227;-88
2023/06/10 21:17:00;;;;;;;11.50;10.27;;;16.60;99.90;;;;;;4998570;28;20287;-88
2023/06/10 21:35:00;;;;;;;8.98;7.97;;;16.70;99.90;;;;;;5130258;22;20230;-86
2023/06/10 21:37:27;;;;;;;9.68;8.38;;;16.70;99.90;;;;;;4965300;28;20568;-86
2023/06/10 21:43:22;;;;;;;9.02;8.23;;;16.80;99.90;;;;;;4997429;28;20215;-84
2023/06/10 21:49:46;;;;;;;9.68;8.75;;;16.70;99.90;;;;;;4997444;28;20214;-86
2023/06/10 21:55:51;;;;;;;9.95;8.95;;;16.60;99.90;;;;;;4997430;28;20251;-88
2023/06/10 21:58:18;;;;;;;9.60;8.70;;;16.60;99.90;;;;;;4995459;28;20239;-87
2023/06/10 22:00:46;;;;;;;10.75;8.50;;;16.60;99.90;;;;;;4964695;28;20200;-86
